createdAt,value
2017-11-27T00:01:02.310Z,87.99
2017-11-27T00:03:32.074Z,87.86
2017-11-27T00:06:01.883Z,87.81
2017-11-27T00:08:31.014Z,87.82
2017-11-27T00:11:01.160Z,87.65
2017-11-27T00:13:34.102Z,87.78
2017-11-27T00:16:03.124Z,87.80
2017-11-27T00:18:32.174Z,88.05
2017-11-27T00:21:01.936Z,88.04
2017-11-27T00:23:32.885Z,87.81
2017-11-27T00:28:39.000Z,87.35
2017-11-27T00:31:08.001Z,86.95
2017-11-27T00:33:38.632Z,86.53
2017-11-27T00:36:10.952Z,86.21
2017-11-27T00:38:39.992Z,86.07
2017-11-27T00:41:09.865Z,85.81
2017-11-27T00:46:12.952Z,85.79
2017-11-27T00:48:42.316Z,85.52
2017-11-27T00:51:11.416Z,84.92
2017-11-27T00:53:40.509Z,85.67
2017-11-27T00:56:10.465Z,85.58
2017-11-27T00:58:39.624Z,85.43
2017-11-27T01:01:13.666Z,84.99
2017-11-27T01:03:42.888Z,84.65
2017-11-27T01:06:12.950Z,84.67
2017-11-27T01:08:42.339Z,84.62
2017-11-27T01:11:11.453Z,84.97
2017-11-27T01:13:42.084Z,85.09
2017-11-27T01:16:12.055Z,85.33
2017-11-27T01:18:41.094Z,85.42
2017-11-27T01:21:10.073Z,85.52
2017-11-27T01:26:14.143Z,85.26
2017-11-27T01:28:43.246Z,85.34
2017-11-27T01:31:12.313Z,85.03
2017-11-27T01:33:42.495Z,85.03
2017-11-27T01:36:12.428Z,85.06
2017-11-27T01:38:41.685Z,84.60
2017-11-27T01:41:10.781Z,84.89
2017-11-27T01:43:39.775Z,84.74
2017-11-27T01:46:10.820Z,84.91
2017-11-27T01:48:39.826Z,84.74
2017-11-27T01:51:08.862Z,85.02
2017-11-27T01:53:38.107Z,85.13
2017-11-27T01:56:07.259Z,84.68
2017-11-27T01:58:36.463Z,84.85
2017-11-27T02:01:06.416Z,84.45
2017-11-27T02:03:35.573Z,85.28
2017-11-27T02:06:04.671Z,85.37
2017-11-27T02:08:34.823Z,84.97
2017-11-27T02:11:03.988Z,85.39
2017-11-27T02:13:33.188Z,85.58
2017-11-27T02:16:02.487Z,85.15
2017-11-27T02:18:32.861Z,85.11
2017-11-27T02:21:01.963Z,85.41
2017-11-27T02:23:33.354Z,85.24
2017-11-27T02:26:03.587Z,85.16
2017-11-27T02:28:32.683Z,85.41
2017-11-27T02:31:03.797Z,85.22
2017-11-27T02:33:33.683Z,84.99
2017-11-27T02:36:02.666Z,85.14
2017-11-27T02:38:32.069Z,86.01
2017-11-27T02:41:01.330Z,85.98
2017-11-27T02:43:30.672Z,86.08
2017-11-27T02:46:00.818Z,85.85
2017-11-27T02:48:30.255Z,85.55
2017-11-27T02:50:59.474Z,85.55
2017-11-27T02:53:29.575Z,85.51
2017-11-27T02:55:58.838Z,85.49
2017-11-27T02:58:29.644Z,85.39
2017-11-27T03:00:59.630Z,85.48
2017-11-27T03:03:30.706Z,85.12
2017-11-27T03:05:59.666Z,84.41
2017-11-27T03:08:29.005Z,84.40
2017-11-27T03:10:58.060Z,84.63
2017-11-27T03:13:27.254Z,84.33
2017-11-27T03:15:56.557Z,84.45
2017-11-27T03:18:25.547Z,84.01
2017-11-27T03:20:54.499Z,83.81
2017-11-27T03:23:24.362Z,83.81
2017-11-27T03:25:53.452Z,83.94
2017-11-27T03:28:22.509Z,83.46
2017-11-27T03:30:51.763Z,83.50
2017-11-27T03:33:22.928Z,83.75
2017-11-27T03:35:53.277Z,83.39
2017-11-27T03:38:22.385Z,82.95
2017-11-27T03:40:52.280Z,83.20
2017-11-27T03:43:24.032Z,83.37
2017-11-27T03:45:53.238Z,83.06
2017-11-27T03:48:22.231Z,82.88
2017-11-27T03:50:52.077Z,83.19
2017-11-27T03:53:21.609Z,83.19
2017-11-27T03:55:50.795Z,83.33
2017-11-27T03:58:22.861Z,83.08
2017-11-27T04:00:53.551Z,82.96
2017-11-27T04:03:22.523Z,83.16
2017-11-27T04:05:53.296Z,83.47
2017-11-27T04:08:25.230Z,83.66
2017-11-27T04:10:54.280Z,83.50
2017-11-27T04:15:58.284Z,83.06
2017-11-27T04:18:28.439Z,83.31
2017-11-27T04:23:32.812Z,83.75
2017-11-27T04:26:01.923Z,84.13
2017-11-27T04:28:31.062Z,83.50
2017-11-27T04:31:00.403Z,83.54
2017-11-27T04:33:30.262Z,84.05
2017-11-27T04:36:02.150Z,84.47
2017-11-27T04:38:31.173Z,84.71
2017-11-27T04:41:00.238Z,85.17
2017-11-27T04:43:30.693Z,85.23
2017-11-27T04:46:00.776Z,85.49
2017-11-27T04:48:29.867Z,85.24
2017-11-27T04:50:59.987Z,85.33
2017-11-27T04:53:30.922Z,85.36
2017-11-27T04:56:01.847Z,85.44
2017-11-27T04:58:30.855Z,85.27
2017-11-27T05:00:59.851Z,84.32
2017-11-27T05:03:30.042Z,84.18
2017-11-27T05:05:59.015Z,84.15
2017-11-27T05:08:34.071Z,84.52
2017-11-27T05:11:03.197Z,85.42
2017-11-27T05:13:32.191Z,85.52
2017-11-27T05:16:01.289Z,85.75
2017-11-27T05:18:30.246Z,86.25
2017-11-27T05:20:59.630Z,87.10
2017-11-27T05:23:29.523Z,86.42
2017-11-27T05:25:59.308Z,87.44
2017-11-27T05:28:28.443Z,87.42
2017-11-27T05:30:58.301Z,87.66
2017-11-27T05:33:28.949Z,88.43
2017-11-27T05:35:58.970Z,88.13
2017-11-27T05:38:28.068Z,88.36
2017-11-27T05:40:56.938Z,88.01
2017-11-27T05:43:26.052Z,87.90
2017-11-27T05:45:56.049Z,87.43
2017-11-27T05:48:26.677Z,87.88
2017-11-27T05:50:55.553Z,87.47
2017-11-27T05:53:24.877Z,87.32
2017-11-27T05:55:53.886Z,87.08
2017-11-27T05:58:24.008Z,87.08
2017-11-27T06:00:55.981Z,86.94
2017-11-27T06:03:24.949Z,86.73
2017-11-27T06:05:53.897Z,86.78
2017-11-27T06:08:24.585Z,86.40
2017-11-27T06:10:54.711Z,86.14
2017-11-27T06:13:28.722Z,86.23
2017-11-27T06:15:58.842Z,86.79
2017-11-27T06:18:35.860Z,87.43
2017-11-27T06:21:05.879Z,86.84
2017-11-27T06:23:36.064Z,86.60
2017-11-27T06:26:05.912Z,85.98
2017-11-27T06:28:35.815Z,84.95
2017-11-27T06:31:05.812Z,84.90
2017-11-27T06:33:35.105Z,84.71
2017-11-27T06:36:04.109Z,83.79
2017-11-27T06:38:34.201Z,83.45
2017-11-27T06:41:05.980Z,82.44
2017-11-27T06:43:35.010Z,82.06
2017-11-27T06:46:04.164Z,80.21
2017-11-27T06:48:36.418Z,79.02
2017-11-27T06:51:05.481Z,78.80
2017-11-27T06:53:34.667Z,77.52
2017-11-27T06:56:04.706Z,77.35
2017-11-27T06:58:33.848Z,76.54
2017-11-27T07:01:02.866Z,75.98
2017-11-27T07:03:35.104Z,76.46
2017-11-27T07:06:04.249Z,77.56
2017-11-27T07:08:33.283Z,78.01
2017-11-27T07:11:02.281Z,77.46
2017-11-27T07:13:32.382Z,77.42
2017-11-27T07:18:37.674Z,77.30
2017-11-27T07:21:07.336Z,77.53
2017-11-27T07:23:38.259Z,77.17
2017-11-27T07:26:10.188Z,77.00
2017-11-27T07:28:40.038Z,77.53
2017-11-27T07:31:09.072Z,76.40
2017-11-27T07:33:40.591Z,74.91
2017-11-27T07:36:10.000Z,75.26
2017-11-27T07:38:44.794Z,75.97
2017-11-27T07:41:14.428Z,76.25
2017-11-27T07:43:46.791Z,77.06
2017-11-27T07:48:50.502Z,77.26
2017-11-27T07:51:19.624Z,76.74
2017-11-27T07:53:49.461Z,76.48
2017-11-27T07:56:19.407Z,75.99
2017-11-27T07:58:48.301Z,75.65
2017-11-27T08:01:20.057Z,77.00
2017-11-27T08:03:49.298Z,76.98
2017-11-27T08:06:18.353Z,76.59
2017-11-27T08:08:48.511Z,76.14
2017-11-27T08:11:17.703Z,76.78
2017-11-27T08:13:46.912Z,76.12
2017-11-27T08:18:50.795Z,76.38
2017-11-27T08:21:20.914Z,77.39
2017-11-27T08:23:50.915Z,77.59
2017-11-27T08:26:20.843Z,77.76
2017-11-27T08:28:50.555Z,77.37
2017-11-27T08:31:21.395Z,76.25
2017-11-27T08:33:54.183Z,76.71
2017-11-27T08:36:23.273Z,77.76
2017-11-27T08:38:52.374Z,77.69
2017-11-27T08:41:21.314Z,77.10
2017-11-27T08:43:51.173Z,76.24
2017-11-27T08:46:20.225Z,76.29
2017-11-27T08:48:51.433Z,76.00
2017-11-27T08:51:20.441Z,77.01
2017-11-27T08:53:49.506Z,76.41
2017-11-27T08:56:20.445Z,76.98
2017-11-27T08:58:50.394Z,75.59
2017-11-27T09:01:22.748Z,74.57
2017-11-27T09:03:54.196Z,74.82
2017-11-27T09:06:25.022Z,74.32
2017-11-27T09:08:54.201Z,74.15
2017-11-27T09:11:23.301Z,73.87
2017-11-27T09:13:55.275Z,73.90
2017-11-27T09:16:24.311Z,73.45
2017-11-27T09:18:53.440Z,73.19
2017-11-27T09:21:22.460Z,75.40
2017-11-27T09:23:51.668Z,74.76
2017-11-27T09:26:20.960Z,73.66
2017-11-27T09:28:55.686Z,73.44
2017-11-27T09:31:24.778Z,73.45
2017-11-27T09:33:53.815Z,73.08
2017-11-27T09:36:26.055Z,73.12
2017-11-27T09:38:55.249Z,73.79
2017-11-27T09:41:26.050Z,74.25
2017-11-27T09:43:58.380Z,73.92
2017-11-27T09:46:28.473Z,75.04
2017-11-27T09:49:00.923Z,75.16
2017-11-27T09:51:29.904Z,75.26
2017-11-27T09:56:34.711Z,75.29
2017-11-27T09:59:04.661Z,74.64
2017-11-27T10:01:33.685Z,75.86
2017-11-27T10:06:39.121Z,75.43
2017-11-27T10:09:08.205Z,75.33
2017-11-27T10:11:38.084Z,76.13
2017-11-27T10:14:07.075Z,76.13
2017-11-27T10:16:36.209Z,76.19
2017-11-27T10:19:06.974Z,75.43
2017-11-27T10:21:35.998Z,76.04
2017-11-27T10:24:06.224Z,76.21
2017-11-27T10:26:36.350Z,75.97
2017-11-27T10:29:06.353Z,75.92
2017-11-27T10:31:38.988Z,75.71
2017-11-27T10:34:10.518Z,75.14
2017-11-27T10:39:15.329Z,77.02
2017-11-27T10:41:45.267Z,76.98
2017-11-27T10:44:14.337Z,77.31
2017-11-27T10:51:53.917Z,77.48
2017-11-27T10:54:22.913Z,77.70
2017-11-27T10:56:51.907Z,77.40
2017-11-27T10:59:22.022Z,76.63
2017-11-27T11:01:51.127Z,76.85
2017-11-27T11:04:20.321Z,76.34
2017-11-27T11:06:53.000Z,75.67
2017-11-27T11:09:25.676Z,76.03
2017-11-27T11:11:57.846Z,76.57
2017-11-27T11:14:27.043Z,76.42
2017-11-27T11:16:57.777Z,77.46
2017-11-27T11:22:01.090Z,77.01
2017-11-27T11:24:32.952Z,76.53
2017-11-27T11:27:02.923Z,76.98
2017-11-27T11:29:31.973Z,77.01
2017-11-27T11:32:01.051Z,77.08
2017-11-27T11:34:31.269Z,76.95
2017-11-27T11:37:01.093Z,77.56
2017-11-27T11:39:30.064Z,77.59
2017-11-27T11:42:00.103Z,77.57
2017-11-27T11:44:29.339Z,77.83
2017-11-27T11:46:59.979Z,78.63
2017-11-27T11:49:30.634Z,77.80
2017-11-27T11:51:59.702Z,77.18
2017-11-27T11:54:28.659Z,77.60
2017-11-27T11:56:59.152Z,77.98
2017-11-27T11:59:28.290Z,78.36
2017-11-27T12:01:57.631Z,78.91
2017-11-27T12:04:28.010Z,79.16
2017-11-27T12:06:57.160Z,79.25
2017-11-27T12:09:26.310Z,79.39
2017-11-27T12:11:59.908Z,78.44
2017-11-27T12:14:29.880Z,78.45
2017-11-27T12:16:58.912Z,78.61
2017-11-27T12:19:28.165Z,79.11
2017-11-27T12:21:57.207Z,79.17
2017-11-27T12:24:26.308Z,79.74
2017-11-27T12:26:56.304Z,79.86
2017-11-27T12:29:26.141Z,80.50
2017-11-27T12:31:55.336Z,80.14
2017-11-27T12:34:24.542Z,80.33
2017-11-27T12:36:53.478Z,79.82
2017-11-27T12:39:23.398Z,80.45
2017-11-27T12:41:53.363Z,80.38
2017-11-27T12:44:22.633Z,80.25
2017-11-27T12:46:51.965Z,79.76
2017-11-27T12:49:23.716Z,79.34
2017-11-27T12:51:53.537Z,79.56
2017-11-27T12:54:22.524Z,79.83
2017-11-27T12:56:52.581Z,79.44
2017-11-27T12:59:21.994Z,79.74
2017-11-27T13:01:50.976Z,80.42
2017-11-27T13:04:20.434Z,80.11
2017-11-27T13:06:49.586Z,80.40
2017-11-27T13:21:20.974Z,82.64
2017-11-27T13:23:49.960Z,82.39
2017-11-27T13:26:18.960Z,82.65
2017-11-27T13:28:48.668Z,82.47
2017-11-27T13:31:17.667Z,82.77
2017-11-27T13:33:47.530Z,83.28
2017-11-27T13:36:17.495Z,82.90
2017-11-27T13:38:54.480Z,82.78
2017-11-27T13:43:57.584Z,82.15
2017-11-27T13:46:26.677Z,82.29
2017-11-27T13:48:55.987Z,82.24
2017-11-27T13:51:24.909Z,82.62
2017-11-27T13:53:54.458Z,82.45
2017-11-27T13:58:58.649Z,83.32
2017-11-27T14:01:27.709Z,83.32
2017-11-27T14:03:57.725Z,83.28
2017-11-27T14:06:27.433Z,83.73
2017-11-27T14:08:57.346Z,84.01
2017-11-27T14:11:26.691Z,84.94
2017-11-27T14:13:55.746Z,84.56
2017-11-27T14:16:24.832Z,84.44
2017-11-27T14:18:54.764Z,84.27
2017-11-27T14:21:23.645Z,83.88
2017-11-27T14:23:53.564Z,83.75
2017-11-27T14:28:56.468Z,83.77
2017-11-27T14:31:25.503Z,83.79
2017-11-27T14:33:54.660Z,84.12
2017-11-27T14:36:24.880Z,84.44
2017-11-27T14:38:53.868Z,84.23
2017-11-27T14:41:23.073Z,84.04
2017-11-27T14:43:52.257Z,83.59
2017-11-27T14:46:21.671Z,84.04
2017-11-27T14:48:50.704Z,84.27
2017-11-27T14:51:19.878Z,83.64
2017-11-27T14:53:49.573Z,83.80
2017-11-27T14:56:20.310Z,84.07
2017-11-27T14:58:49.461Z,83.73
2017-11-27T15:01:18.707Z,83.62
2017-11-27T15:03:49.749Z,83.93
2017-11-27T15:06:19.108Z,83.53
2017-11-27T15:08:48.581Z,83.75
2017-11-27T15:11:17.757Z,83.56
2017-11-27T15:13:47.777Z,83.70
2017-11-27T15:16:17.568Z,84.01
2017-11-27T15:18:48.947Z,83.30
2017-11-27T15:21:18.118Z,84.19
2017-11-27T15:23:47.431Z,83.86
2017-11-27T15:26:16.667Z,84.14
2017-11-27T15:28:46.683Z,83.85
2017-11-27T15:31:15.746Z,84.07
2017-11-27T15:33:46.679Z,83.79
2017-11-27T15:36:19.352Z,83.37
2017-11-27T15:38:48.560Z,84.12
2017-11-27T15:41:17.863Z,84.58
2017-11-27T15:43:46.996Z,84.30
2017-11-27T15:46:17.076Z,84.54
2017-11-27T15:48:46.625Z,85.35
2017-11-27T15:51:16.685Z,85.70
2017-11-27T15:53:46.207Z,86.06
2017-11-27T15:56:15.658Z,85.97
2017-11-27T15:58:44.961Z,86.62
2017-11-27T16:01:16.128Z,86.26
2017-11-27T16:03:45.899Z,86.89
2017-11-27T16:06:15.167Z,87.24
2017-11-27T16:08:44.478Z,87.61
2017-11-27T16:11:13.669Z,87.41
2017-11-27T16:13:42.804Z,87.66
2017-11-27T16:16:12.173Z,88.10
2017-11-27T16:18:41.470Z,87.90
2017-11-27T16:21:10.546Z,87.88
2017-11-27T16:23:41.699Z,88.35
2017-11-27T16:26:10.840Z,88.61
2017-11-27T16:28:40.004Z,89.17
2017-11-27T16:31:09.305Z,89.79
2017-11-27T16:33:38.441Z,89.73
2017-11-27T16:36:07.597Z,89.36
2017-11-27T16:38:37.816Z,89.74
2017-11-27T16:41:07.778Z,89.58
2017-11-27T16:43:36.934Z,89.62
2017-11-27T16:46:06.973Z,89.74
2017-11-27T16:48:36.152Z,90.19
2017-11-27T16:51:05.349Z,90.31
2017-11-27T16:53:34.784Z,90.20
2017-11-27T16:56:03.940Z,90.44
2017-11-27T16:58:33.103Z,89.90
2017-11-27T17:01:05.933Z,90.00
2017-11-27T17:03:35.917Z,89.82
2017-11-27T17:06:07.065Z,89.67
2017-11-27T17:08:36.605Z,89.42
2017-11-27T17:11:07.340Z,89.18
2017-11-27T17:13:36.469Z,88.74
2017-11-27T17:16:06.625Z,88.70
2017-11-27T17:21:13.482Z,89.43
2017-11-27T17:23:42.684Z,89.84
2017-11-27T17:26:12.870Z,89.10
2017-11-27T17:31:16.150Z,88.96
2017-11-27T17:33:46.032Z,88.82
2017-11-27T17:36:15.397Z,89.55
2017-11-27T17:38:47.255Z,89.62
2017-11-27T17:41:19.731Z,89.11
2017-11-27T17:43:48.922Z,89.18
2017-11-27T17:46:18.124Z,88.60
2017-11-27T17:48:47.225Z,88.04
2017-11-27T17:51:17.421Z,87.72
2017-11-27T17:53:46.899Z,87.04
2017-11-27T17:56:16.403Z,87.15
2017-11-27T17:58:45.488Z,87.42
2017-11-27T18:01:15.569Z,87.68
2017-11-27T18:03:45.778Z,88.23
2017-11-27T18:06:15.086Z,88.18
2017-11-27T18:08:44.429Z,87.86
2017-11-27T18:11:15.184Z,87.82
2017-11-27T18:13:44.355Z,87.58
2017-11-27T18:16:13.462Z,87.52
2017-11-27T18:18:44.059Z,87.92
2017-11-27T18:21:13.575Z,87.79
2017-11-27T18:23:42.895Z,87.72
2017-11-27T18:26:15.753Z,88.08
2017-11-27T18:28:44.988Z,87.47
2017-11-27T18:31:14.958Z,88.05
2017-11-27T18:33:45.966Z,88.33
2017-11-27T18:36:15.304Z,87.99
2017-11-27T18:38:47.369Z,86.82
2017-11-27T18:41:18.913Z,85.99
2017-11-27T18:43:48.536Z,85.16
2017-11-27T18:46:17.978Z,84.86
2017-11-27T18:48:47.385Z,86.06
2017-11-27T18:53:51.879Z,86.89
2017-11-27T18:56:21.947Z,87.58
2017-11-27T18:58:52.023Z,87.50
2017-11-27T19:01:21.912Z,87.39
2017-11-27T19:03:51.064Z,86.77
2017-11-27T19:06:20.430Z,87.23
2017-11-27T19:08:49.769Z,87.67
2017-11-27T19:11:19.039Z,88.01
2017-11-27T19:13:48.328Z,88.34
2017-11-27T19:16:18.459Z,88.82
2017-11-27T19:18:47.451Z,89.53
2017-11-27T19:21:16.601Z,89.92
2017-11-27T19:23:46.048Z,90.13
2017-11-27T19:26:15.244Z,90.35
2017-11-27T19:28:44.521Z,90.37
2017-11-27T19:31:13.843Z,89.53
2017-11-27T19:33:43.088Z,89.48
2017-11-27T19:36:18.382Z,90.17
2017-11-27T19:38:47.654Z,90.64
2017-11-27T19:41:17.299Z,90.59
2017-11-27T19:43:48.443Z,90.79
2017-11-27T19:46:19.181Z,90.92
2017-11-27T19:48:48.475Z,90.42
2017-11-27T19:51:18.429Z,90.59
2017-11-27T19:53:49.765Z,90.70
2017-11-27T19:58:56.114Z,90.17
2017-11-27T20:01:27.862Z,90.14
2017-11-27T20:03:57.075Z,89.76
2017-11-27T20:06:26.139Z,89.96
2017-11-27T20:08:56.396Z,90.33
2017-11-27T20:11:25.650Z,90.60
2017-11-27T20:13:55.714Z,91.09
2017-11-27T20:16:26.614Z,90.63
2017-11-27T20:18:56.102Z,90.82
2017-11-27T20:21:26.442Z,90.78
2017-11-27T20:23:57.754Z,91.05
2017-11-27T20:26:27.008Z,92.21
2017-11-27T20:28:56.806Z,91.89
2017-11-27T20:31:28.203Z,91.51
2017-11-27T20:33:57.544Z,91.75
2017-11-27T20:36:27.170Z,92.48
2017-11-27T20:38:58.280Z,92.46
2017-11-27T20:41:27.562Z,92.59
2017-11-27T20:43:57.617Z,92.34
2017-11-27T20:46:27.185Z,92.53
2017-11-27T20:48:57.137Z,92.07
2017-11-27T20:51:26.919Z,90.74
2017-11-27T20:53:59.480Z,90.65
2017-11-27T20:56:28.884Z,91.93
2017-11-27T20:58:58.000Z,92.34
2017-11-27T21:01:27.147Z,92.55
2017-11-27T21:03:56.511Z,92.55
2017-11-27T21:06:25.675Z,92.27
2017-11-27T21:08:55.882Z,91.78
2017-11-27T21:11:25.892Z,91.83
2017-11-27T21:13:55.218Z,92.24
2017-11-27T21:16:25.590Z,91.72
2017-11-27T21:18:54.916Z,91.39
2017-11-27T21:21:31.165Z,91.60
2017-11-27T21:24:01.438Z,91.61
2017-11-27T21:26:30.628Z,92.13
2017-11-27T21:29:00.628Z,92.33
2017-11-27T21:31:29.720Z,92.10
2017-11-27T21:33:58.797Z,92.45
2017-11-27T21:36:27.866Z,92.57
2017-11-27T21:38:57.070Z,91.92
2017-11-27T21:41:29.822Z,90.81
2017-11-27T21:43:59.285Z,91.18
2017-11-27T21:46:32.631Z,90.93
2017-11-27T21:49:01.960Z,90.72
2017-11-27T21:51:31.112Z,90.04
2017-11-27T21:54:00.508Z,89.80
2017-11-27T21:56:29.598Z,89.90
2017-11-27T21:58:58.817Z,89.07
2017-11-27T22:01:28.831Z,89.37
2017-11-27T22:03:58.023Z,88.66
2017-11-27T22:06:27.123Z,88.05
2017-11-27T22:08:56.398Z,88.55
2017-11-27T22:11:25.383Z,88.23
2017-11-27T22:13:54.624Z,87.80
2017-11-27T22:16:24.847Z,88.62
2017-11-27T22:18:53.982Z,88.13
2017-11-27T22:21:23.138Z,88.16
2017-11-27T22:23:53.196Z,88.20
2017-11-27T22:26:22.406Z,88.73
2017-11-27T22:28:51.673Z,89.38
2017-11-27T22:31:22.393Z,89.35
2017-11-27T22:33:52.202Z,88.90
2017-11-27T22:36:21.849Z,89.29
2017-11-27T22:38:51.406Z,90.05
2017-11-27T22:41:20.408Z,89.31
2017-11-27T22:43:50.972Z,90.46
2017-11-27T22:46:21.255Z,89.72
2017-11-27T22:48:50.557Z,89.40
2017-11-27T22:51:19.653Z,89.19
2017-11-27T22:53:49.912Z,90.06
2017-11-27T22:56:19.084Z,90.77
2017-11-27T22:58:48.325Z,89.73
2017-11-27T23:01:17.677Z,88.11
2017-11-27T23:03:46.875Z,88.28
2017-11-27T23:06:17.005Z,88.34
2017-11-27T23:08:47.492Z,88.53
2017-11-27T23:11:16.646Z,88.74
2017-11-27T23:13:45.886Z,89.37
2017-11-27T23:16:15.004Z,89.62
2017-11-27T23:18:44.357Z,90.25
2017-11-27T23:21:13.671Z,90.80
2017-11-27T23:23:42.938Z,91.23
2017-11-27T23:26:12.118Z,90.17
2017-11-27T23:28:42.860Z,88.21
2017-11-27T23:33:47.695Z,89.71
2017-11-27T23:36:17.579Z,88.43
2017-11-27T23:38:46.854Z,87.87
2017-11-27T23:41:17.653Z,87.71
2017-11-27T23:43:46.982Z,87.32
2017-11-27T23:46:16.152Z,86.93
2017-11-27T23:48:45.586Z,86.94
2017-11-27T23:51:14.788Z,87.35
2017-11-27T23:53:44.657Z,87.64
2017-11-27T23:56:14.673Z,86.63
2017-11-27T23:58:43.800Z,87.10
